Terminal Aerodrome Forecast
Issued by NWS Pocatello, ID

Current Version | Previous Version | Text Only | Print | Product List | Glossary On
Versions: 1 2 3 4 5 6 7 8 9 10 11 12 13 14
174
FTUS45 KPIH 251123
TAFPIH
TAF
KPIH 251123Z 2512/2612 20011KT P6SM BKN120 OVC200
     FM251500 23010KT P6SM -SHRA VCTS BKN070 BKN100CB
     FM260200 17008KT P6SM VCTS BKN120CB=

USA.gov is the U.S. government's official web portal to all federal, state and local government web resources and services.